sensor_id;sensor_type;location;lat;lon;timestamp;pressure;altitude;pressure_sealevel;temperature;humidity
36798;BME280;22748;8.426;99.512;2023-03-22T00:01:44;100580.97;;;29.21;57.03
36798;BME280;22748;8.426;99.512;2023-03-22T00:04:16;100583.44;;;29.22;56.99
36798;BME280;22748;8.426;99.512;2023-03-22T00:06:48;100580.75;;;29.22;57.07
36798;BME280;22748;8.426;99.512;2023-03-22T00:09:18;100582.84;;;29.20;57.29
36798;BME280;22748;8.426;99.512;2023-03-22T00:11:53;100590.06;;;29.20;57.35
36798;BME280;22748;8.426;99.512;2023-03-22T00:14:25;100593.19;;;29.17;57.94
36798;BME280;22748;8.426;99.512;2023-03-22T00:16:56;100594.84;;;29.11;57.86
36798;BME280;22748;8.426;99.512;2023-03-22T00:19:26;100598.38;;;29.11;57.99
36798;BME280;22748;8.426;99.512;2023-03-22T00:22:01;100596.91;;;29.16;58.36
36798;BME280;22748;8.426;99.512;2023-03-22T00:24:33;100601.25;;;29.17;58.35
36798;BME280;22748;8.426;99.512;2023-03-22T00:27:05;100609.13;;;29.18;58.37
36798;BME280;22748;8.426;99.512;2023-03-22T00:29:37;100608.69;;;29.21;57.56
36798;BME280;22748;8.426;99.512;2023-03-22T00:32:09;100616.31;;;29.24;57.94
36798;BME280;22748;8.426;99.512;2023-03-22T00:34:40;100612.59;;;29.25;58.01
36798;BME280;22748;8.426;99.512;2023-03-22T00:37:09;100620.06;;;29.23;57.68
36798;BME280;22748;8.426;99.512;2023-03-22T00:39:41;100621.69;;;29.24;58.09
36798;BME280;22748;8.426;99.512;2023-03-22T00:42:11;100626.25;;;29.24;58.35
36798;BME280;22748;8.426;99.512;2023-03-22T00:44:45;100626.47;;;29.22;58.24
36798;BME280;22748;8.426;99.512;2023-03-22T00:47:15;100628.75;;;29.25;58.76
36798;BME280;22748;8.426;99.512;2023-03-22T00:49:46;100638.06;;;29.29;58.37
36798;BME280;22748;8.426;99.512;2023-03-22T00:52:17;100641.13;;;29.33;58.31
36798;BME280;22748;8.426;99.512;2023-03-22T00:54:47;100641.34;;;29.31;58.10
36798;BME280;22748;8.426;99.512;2023-03-22T00:57:17;100655.59;;;29.39;58.57
36798;BME280;22748;8.426;99.512;2023-03-22T00:59:50;100650.63;;;29.42;58.59
36798;BME280;22748;8.426;99.512;2023-03-22T01:02:23;100660.53;;;29.48;58.42
36798;BME280;22748;8.426;99.512;2023-03-22T01:04:57;100668.19;;;29.51;58.42
36798;BME280;22748;8.426;99.512;2023-03-22T01:07:27;100662.81;;;29.51;58.43
36798;BME280;22748;8.426;99.512;2023-03-22T01:09:57;100660.53;;;29.55;58.39
36798;BME280;22748;8.426;99.512;2023-03-22T01:12:29;100658.41;;;29.57;58.03
36798;BME280;22748;8.426;99.512;2023-03-22T01:15:02;100665.47;;;29.58;58.66
36798;BME280;22748;8.426;99.512;2023-03-22T01:17:33;100660.09;;;29.58;58.88
36798;BME280;22748;8.426;99.512;2023-03-22T01:20:03;100662.13;;;29.63;58.29
36798;BME280;22748;8.426;99.512;2023-03-22T01:22:35;100663.16;;;29.68;58.11
36798;BME280;22748;8.426;99.512;2023-03-22T01:25:08;100661.28;;;29.76;58.50
36798;BME280;22748;8.426;99.512;2023-03-22T01:27:39;100662.94;;;29.77;58.20
36798;BME280;22748;8.426;99.512;2023-03-22T01:30:13;100665.84;;;29.68;58.64
36798;BME280;22748;8.426;99.512;2023-03-22T01:32:49;100662.75;;;29.71;58.62
36798;BME280;22748;8.426;99.512;2023-03-22T01:35:21;100669.97;;;29.78;59.37
36798;BME280;22748;8.426;99.512;2023-03-22T01:37:52;100676.16;;;29.85;58.75
36798;BME280;22748;8.426;99.512;2023-03-22T01:40:29;100671.53;;;29.92;58.82
36798;BME280;22748;8.426;99.512;2023-03-22T01:42:59;100676.53;;;29.95;59.17
36798;BME280;22748;8.426;99.512;2023-03-22T01:45:46;100679.03;;;29.90;59.23
36798;BME280;22748;8.426;99.512;2023-03-22T01:48:22;100678.16;;;29.96;59.25
36798;BME280;22748;8.426;99.512;2023-03-22T01:51:05;100671.50;;;30.05;59.07
36798;BME280;22748;8.426;99.512;2023-03-22T01:53:39;100671.25;;;30.07;58.77
36798;BME280;22748;8.426;99.512;2023-03-22T01:56:11;100674.34;;;30.10;58.53
36798;BME280;22748;8.426;99.512;2023-03-22T01:58:42;100673.91;;;30.13;58.83
36798;BME280;22748;8.426;99.512;2023-03-22T02:01:15;100679.25;;;30.20;58.69
36798;BME280;22748;8.426;99.512;2023-03-22T02:03:51;100674.72;;;30.21;58.65
36798;BME280;22748;8.426;99.512;2023-03-22T02:06:23;100673.72;;;30.15;58.64
36798;BME280;22748;8.426;99.512;2023-03-22T02:08:57;100680.06;;;30.27;58.08
36798;BME280;22748;8.426;99.512;2023-03-22T02:11:28;100686.78;;;30.11;58.48
36798;BME280;22748;8.426;99.512;2023-03-22T02:14:13;100683.47;;;30.09;58.54
36798;BME280;22748;8.426;99.512;2023-03-22T02:17:02;100691.69;;;30.28;58.40
36798;BME280;22748;8.426;99.512;2023-03-22T02:19:59;100687.28;;;30.40;58.09
36798;BME280;22748;8.426;99.512;2023-03-22T02:22:59;100698.22;;;30.45;57.80
36798;BME280;22748;8.426;99.512;2023-03-22T02:25:50;100694.84;;;30.50;57.96
36798;BME280;22748;8.426;99.512;2023-03-22T02:28:33;100696.53;;;30.44;58.08
36798;BME280;22748;8.426;99.512;2023-03-22T02:34:19;100706.66;;;30.55;57.82
36798;BME280;22748;8.426;99.512;2023-03-22T02:40:20;100708.03;;;30.65;57.25
36798;BME280;22748;8.426;99.512;2023-03-22T02:43:04;100711.66;;;30.77;57.42
36798;BME280;22748;8.426;99.512;2023-03-22T02:45:45;100717.88;;;30.78;57.15
36798;BME280;22748;8.426;99.512;2023-03-22T02:48:30;100719.91;;;30.82;56.60
36798;BME280;22748;8.426;99.512;2023-03-22T02:51:04;100710.09;;;30.94;56.57
36798;BME280;22748;8.426;99.512;2023-03-22T02:53:42;100713.56;;;31.02;56.02
36798;BME280;22748;8.426;99.512;2023-03-22T02:56:19;100710.63;;;31.03;56.14
36798;BME280;22748;8.426;99.512;2023-03-22T02:58:55;100711.00;;;31.07;55.93
36798;BME280;22748;8.426;99.512;2023-03-22T03:01:28;100710.72;;;31.15;55.41
36798;BME280;22748;8.426;99.512;2023-03-22T03:04:03;100715.06;;;31.16;54.97
36798;BME280;22748;8.426;99.512;2023-03-22T03:06:38;100710.44;;;31.23;55.02
36798;BME280;22748;8.426;99.512;2023-03-22T03:09:15;100710.38;;;31.30;54.85
36798;BME280;22748;8.426;99.512;2023-03-22T03:11:50;100712.00;;;31.31;54.87
36798;BME280;22748;8.426;99.512;2023-03-22T03:14:24;100709.69;;;31.34;54.99
36798;BME280;22748;8.426;99.512;2023-03-22T03:17:07;100703.84;;;31.37;54.37
36798;BME280;22748;8.426;99.512;2023-03-22T03:19:44;100704.91;;;31.36;54.07
36798;BME280;22748;8.426;99.512;2023-03-22T03:22:29;100700.72;;;31.41;54.61
36798;BME280;22748;8.426;99.512;2023-03-22T03:25:08;100691.56;;;31.42;54.54
36798;BME280;22748;8.426;99.512;2023-03-22T03:27:57;100693.84;;;31.45;54.71
36798;BME280;22748;8.426;99.512;2023-03-22T03:30:35;100696.81;;;31.55;54.07
36798;BME280;22748;8.426;99.512;2023-03-22T03:33:10;100695.09;;;31.61;54.00
36798;BME280;22748;8.426;99.512;2023-03-22T03:35:48;100690.53;;;31.61;53.16
36798;BME280;22748;8.426;99.512;2023-03-22T03:38:21;100685.03;;;31.68;53.28
36798;BME280;22748;8.426;99.512;2023-03-22T03:41:02;100686.03;;;31.73;52.98
36798;BME280;22748;8.426;99.512;2023-03-22T03:43:43;100680.31;;;31.82;53.14
36798;BME280;22748;8.426;99.512;2023-03-22T03:46:16;100683.16;;;31.87;53.08
36798;BME280;22748;8.426;99.512;2023-03-22T03:48:48;100675.19;;;31.92;52.29
36798;BME280;22748;8.426;99.512;2023-03-22T03:51:20;100673.66;;;31.96;52.04
36798;BME280;22748;8.426;99.512;2023-03-22T03:53:51;100676.69;;;32.06;51.80
36798;BME280;22748;8.426;99.512;2023-03-22T03:56:23;100667.41;;;32.14;51.02
36798;BME280;22748;8.426;99.512;2023-03-22T03:58:56;100665.69;;;32.20;51.26
36798;BME280;22748;8.426;99.512;2023-03-22T04:01:27;100658.16;;;32.22;51.33
36798;BME280;22748;8.426;99.512;2023-03-22T04:03:56;100662.84;;;32.14;51.60
36798;BME280;22748;8.426;99.512;2023-03-22T04:06:27;100658.66;;;32.18;51.05
36798;BME280;22748;8.426;99.512;2023-03-22T04:09:01;100651.69;;;32.23;50.78
36798;BME280;22748;8.426;99.512;2023-03-22T04:11:33;100644.78;;;32.27;51.01
36798;BME280;22748;8.426;99.512;2023-03-22T04:14:05;100637.25;;;32.29;50.77
36798;BME280;22748;8.426;99.512;2023-03-22T04:16:35;100634.34;;;32.30;50.67
36798;BME280;22748;8.426;99.512;2023-03-22T04:19:06;100627.53;;;32.28;50.90
36798;BME280;22748;8.426;99.512;2023-03-22T04:21:38;100628.13;;;32.30;50.50
36798;BME280;22748;8.426;99.512;2023-03-22T04:24:09;100623.53;;;32.30;50.76
36798;BME280;22748;8.426;99.512;2023-03-22T04:26:40;100614.81;;;32.28;50.39
36798;BME280;22748;8.426;99.512;2023-03-22T04:29:15;100613.19;;;32.39;49.59
36798;BME280;22748;8.426;99.512;2023-03-22T04:31:55;100609.09;;;32.48;50.14
36798;BME280;22748;8.426;99.512;2023-03-22T04:34:26;100599.47;;;32.52;49.45
36798;BME280;22748;8.426;99.512;2023-03-22T04:36:58;100596.88;;;32.57;49.04
36798;BME280;22748;8.426;99.512;2023-03-22T04:39:29;100591.47;;;32.57;49.69
36798;BME280;22748;8.426;99.512;2023-03-22T04:42:00;100579.28;;;32.67;49.02
36798;BME280;22748;8.426;99.512;2023-03-22T04:44:32;100580.44;;;32.71;49.60
36798;BME280;22748;8.426;99.512;2023-03-22T04:47:03;100575.59;;;32.73;48.70
36798;BME280;22748;8.426;99.512;2023-03-22T04:49:35;100567.50;;;32.73;48.83
36798;BME280;22748;8.426;99.512;2023-03-22T04:52:05;100563.38;;;32.82;48.63
36798;BME280;22748;8.426;99.512;2023-03-22T04:54:36;100573.50;;;32.87;48.66
36798;BME280;22748;8.426;99.512;2023-03-22T04:57:08;100562.44;;;32.88;47.92
36798;BME280;22748;8.426;99.512;2023-03-22T04:59:40;100557.50;;;32.85;48.69
36798;BME280;22748;8.426;99.512;2023-03-22T05:02:12;100553.75;;;32.86;48.18
36798;BME280;22748;8.426;99.512;2023-03-22T05:04:43;100551.03;;;32.86;48.35
36798;BME280;22748;8.426;99.512;2023-03-22T05:07:13;100538.44;;;32.92;47.92
36798;BME280;22748;8.426;99.512;2023-03-22T05:09:44;100535.00;;;32.96;47.37
36798;BME280;22748;8.426;99.512;2023-03-22T05:12:16;100525.94;;;33.03;47.45
36798;BME280;22748;8.426;99.512;2023-03-22T05:14:50;100526.06;;;33.08;47.19
36798;BME280;22748;8.426;99.512;2023-03-22T05:17:22;100521.22;;;33.10;47.30
36798;BME280;22748;8.426;99.512;2023-03-22T05:19:54;100517.13;;;33.07;47.83
36798;BME280;22748;8.426;99.512;2023-03-22T05:22:25;100515.22;;;33.08;47.49
36798;BME280;22748;8.426;99.512;2023-03-22T05:24:56;100499.34;;;33.11;47.13
36798;BME280;22748;8.426;99.512;2023-03-22T05:27:26;100502.03;;;33.23;47.14
36798;BME280;22748;8.426;99.512;2023-03-22T05:30:04;100488.66;;;33.33;46.88
36798;BME280;22748;8.426;99.512;2023-03-22T05:32:36;100489.34;;;33.40;46.26
36798;BME280;22748;8.426;99.512;2023-03-22T05:35:11;100483.44;;;33.44;46.43
36798;BME280;22748;8.426;99.512;2023-03-22T05:37:42;100481.06;;;33.47;46.18
36798;BME280;22748;8.426;99.512;2023-03-22T05:40:14;100471.28;;;33.46;46.07
36798;BME280;22748;8.426;99.512;2023-03-22T05:42:45;100475.31;;;33.44;45.82
36798;BME280;22748;8.426;99.512;2023-03-22T05:45:18;100463.56;;;33.38;46.15
36798;BME280;22748;8.426;99.512;2023-03-22T05:47:50;100468.66;;;33.51;46.20
36798;BME280;22748;8.426;99.512;2023-03-22T05:50:22;100448.03;;;33.62;45.96
36798;BME280;22748;8.426;99.512;2023-03-22T05:52:53;100454.59;;;33.66;46.15
36798;BME280;22748;8.426;99.512;2023-03-22T05:55:23;100445.91;;;33.64;46.04
36798;BME280;22748;8.426;99.512;2023-03-22T05:57:57;100439.91;;;33.62;45.38
36798;BME280;22748;8.426;99.512;2023-03-22T06:00:31;100436.38;;;33.62;45.40
36798;BME280;22748;8.426;99.512;2023-03-22T06:03:02;100430.38;;;33.59;45.38
36798;BME280;22748;8.426;99.512;2023-03-22T06:05:34;100430.72;;;33.63;46.09
36798;BME280;22748;8.426;99.512;2023-03-22T06:08:04;100411.84;;;33.68;45.69
36798;BME280;22748;8.426;99.512;2023-03-22T06:10:36;100414.66;;;33.73;45.31
36798;BME280;22748;8.426;99.512;2023-03-22T06:13:06;100408.38;;;33.73;45.32
36798;BME280;22748;8.426;99.512;2023-03-22T06:15:41;100407.66;;;33.77;45.13
36798;BME280;22748;8.426;99.512;2023-03-22T06:18:12;100396.09;;;33.82;45.12
36798;BME280;22748;8.426;99.512;2023-03-22T06:20:44;100386.66;;;33.85;45.08
36798;BME280;22748;8.426;99.512;2023-03-22T06:23:15;100391.50;;;33.83;45.65
36798;BME280;22748;8.426;99.512;2023-03-22T06:25:47;100381.13;;;33.79;46.13
36798;BME280;22748;8.426;99.512;2023-03-22T06:28:19;100381.88;;;33.75;46.81
36798;BME280;22748;8.426;99.512;2023-03-22T06:30:52;100370.75;;;33.71;46.50
36798;BME280;22748;8.426;99.512;2023-03-22T06:33:22;100364.25;;;33.72;45.82
36798;BME280;22748;8.426;99.512;2023-03-22T06:35:55;100359.34;;;33.69;45.92
36798;BME280;22748;8.426;99.512;2023-03-22T06:38:26;100354.22;;;33.73;46.16
36798;BME280;22748;8.426;99.512;2023-03-22T06:40:58;100354.63;;;33.81;46.01
36798;BME280;22748;8.426;99.512;2023-03-22T06:43:30;100352.47;;;33.84;46.15
36798;BME280;22748;8.426;99.512;2023-03-22T06:46:02;100351.44;;;33.85;45.82
36798;BME280;22748;8.426;99.512;2023-03-22T06:48:32;100342.63;;;33.77;45.55
36798;BME280;22748;8.426;99.512;2023-03-22T06:51:03;100341.59;;;33.78;45.63
36798;BME280;22748;8.426;99.512;2023-03-22T06:53:34;100332.19;;;33.86;45.36
36798;BME280;22748;8.426;99.512;2023-03-22T06:56:06;100330.19;;;33.98;45.44
36798;BME280;22748;8.426;99.512;2023-03-22T06:58:36;100328.13;;;34.06;45.49
36798;BME280;22748;8.426;99.512;2023-03-22T07:01:12;100322.97;;;34.04;45.61
36798;BME280;22748;8.426;99.512;2023-03-22T07:03:43;100320.50;;;34.03;45.93
36798;BME280;22748;8.426;99.512;2023-03-22T07:06:13;100320.31;;;34.09;45.34
36798;BME280;22748;8.426;99.512;2023-03-22T07:08:43;100319.84;;;34.12;45.33
36798;BME280;22748;8.426;99.512;2023-03-22T07:11:14;100317.19;;;34.17;44.89
36798;BME280;22748;8.426;99.512;2023-03-22T07:13:46;100301.22;;;34.21;44.90
36798;BME280;22748;8.426;99.512;2023-03-22T07:16:19;100296.66;;;34.21;45.32
36798;BME280;22748;8.426;99.512;2023-03-22T07:18:50;100293.38;;;34.19;45.15
36798;BME280;22748;8.426;99.512;2023-03-22T07:21:21;100285.72;;;34.16;44.91
36798;BME280;22748;8.426;99.512;2023-03-22T07:23:52;100281.44;;;34.20;44.61
36798;BME280;22748;8.426;99.512;2023-03-22T07:26:22;100283.66;;;34.24;44.94
36798;BME280;22748;8.426;99.512;2023-03-22T07:28:53;100260.91;;;34.25;44.55
36798;BME280;22748;8.426;99.512;2023-03-22T07:31:25;100257.69;;;34.28;44.15
36798;BME280;22748;8.426;99.512;2023-03-22T07:33:56;100259.38;;;34.34;43.91
36798;BME280;22748;8.426;99.512;2023-03-22T07:36:26;100251.53;;;34.37;44.32
36798;BME280;22748;8.426;99.512;2023-03-22T07:39:00;100247.56;;;34.45;43.68
36798;BME280;22748;8.426;99.512;2023-03-22T07:41:30;100241.63;;;34.48;44.08
36798;BME280;22748;8.426;99.512;2023-03-22T07:44:00;100230.75;;;34.43;43.98
36798;BME280;22748;8.426;99.512;2023-03-22T07:46:32;100242.31;;;34.38;43.96
36798;BME280;22748;8.426;99.512;2023-03-22T07:49:03;100236.16;;;34.43;43.78
36798;BME280;22748;8.426;99.512;2023-03-22T07:51:32;100234.81;;;34.46;44.31
36798;BME280;22748;8.426;99.512;2023-03-22T07:54:04;100224.22;;;34.44;44.00
36798;BME280;22748;8.426;99.512;2023-03-22T07:56:34;100232.63;;;34.42;43.75
36798;BME280;22748;8.426;99.512;2023-03-22T07:59:05;100220.63;;;34.38;43.78
36798;BME280;22748;8.426;99.512;2023-03-22T08:01:38;100220.34;;;34.35;43.82
36798;BME280;22748;8.426;99.512;2023-03-22T08:04:08;100212.31;;;34.45;43.71
36798;BME280;22748;8.426;99.512;2023-03-22T08:06:38;100207.44;;;34.47;43.14
36798;BME280;22748;8.426;99.512;2023-03-22T08:09:10;100210.13;;;34.42;43.43
36798;BME280;22748;8.426;99.512;2023-03-22T08:11:41;100200.38;;;34.46;43.67
36798;BME280;22748;8.426;99.512;2023-03-22T08:14:11;100192.50;;;34.45;44.11
36798;BME280;22748;8.426;99.512;2023-03-22T08:16:44;100193.06;;;34.47;43.84
36798;BME280;22748;8.426;99.512;2023-03-22T08:19:17;100189.66;;;34.56;43.40
36798;BME280;22748;8.426;99.512;2023-03-22T08:21:48;100191.88;;;34.65;43.04
36798;BME280;22748;8.426;99.512;2023-03-22T08:24:18;100185.44;;;34.71;43.03
36798;BME280;22748;8.426;99.512;2023-03-22T08:26:49;100176.22;;;34.72;43.18
36798;BME280;22748;8.426;99.512;2023-03-22T08:29:21;100174.59;;;34.71;42.77
36798;BME280;22748;8.426;99.512;2023-03-22T08:31:56;100171.31;;;34.69;42.94
36798;BME280;22748;8.426;99.512;2023-03-22T08:34:28;100169.16;;;34.71;42.98
36798;BME280;22748;8.426;99.512;2023-03-22T08:37:03;100162.91;;;34.70;43.03
36798;BME280;22748;8.426;99.512;2023-03-22T08:39:35;100166.41;;;34.66;43.30
36798;BME280;22748;8.426;99.512;2023-03-22T08:42:07;100161.31;;;34.69;43.44
36798;BME280;22748;8.426;99.512;2023-03-22T08:44:38;100163.47;;;34.72;43.57
36798;BME280;22748;8.426;99.512;2023-03-22T08:47:10;100162.91;;;34.70;43.04
36798;BME280;22748;8.426;99.512;2023-03-22T08:49:40;100156.78;;;34.80;43.09
36798;BME280;22748;8.426;99.512;2023-03-22T08:52:12;100152.47;;;34.89;43.14
36798;BME280;22748;8.426;99.512;2023-03-22T08:54:43;100154.16;;;34.95;42.92
36798;BME280;22748;8.426;99.512;2023-03-22T08:57:12;100155.25;;;34.99;43.20
36798;BME280;22748;8.426;99.512;2023-03-22T08:59:42;100153.09;;;35.01;43.02
36798;BME280;22748;8.426;99.512;2023-03-22T09:02:16;100154.97;;;35.01;43.43
36798;BME280;22748;8.426;99.512;2023-03-22T09:04:46;100155.84;;;35.07;43.15
36798;BME280;22748;8.426;99.512;2023-03-22T09:07:19;100159.13;;;35.09;42.63
36798;BME280;22748;8.426;99.512;2023-03-22T09:09:51;100156.97;;;35.11;42.82
36798;BME280;22748;8.426;99.512;2023-03-22T09:12:20;100145.50;;;35.03;42.89
36798;BME280;22748;8.426;99.512;2023-03-22T09:14:52;100143.63;;;35.09;43.08
36798;BME280;22748;8.426;99.512;2023-03-22T09:17:26;100142.06;;;35.13;43.09
36798;BME280;22748;8.426;99.512;2023-03-22T09:19:56;100139.13;;;35.20;42.93
36798;BME280;22748;8.426;99.512;2023-03-22T09:22:27;100139.66;;;35.22;42.78
36798;BME280;22748;8.426;99.512;2023-03-22T09:24:59;100142.94;;;35.24;42.77
36798;BME280;22748;8.426;99.512;2023-03-22T09:27:29;100142.66;;;35.26;42.56
36798;BME280;22748;8.426;99.512;2023-03-22T09:30:00;100135.91;;;35.28;42.85
36798;BME280;22748;8.426;99.512;2023-03-22T09:32:32;100130.75;;;35.32;42.80
36798;BME280;22748;8.426;99.512;2023-03-22T09:35:03;100135.84;;;35.18;42.79
36798;BME280;22748;8.426;99.512;2023-03-22T09:37:33;100130.88;;;35.05;43.07
36798;BME280;22748;8.426;99.512;2023-03-22T09:40:06;100135.84;;;35.13;42.99
36798;BME280;22748;8.426;99.512;2023-03-22T09:42:41;100138.56;;;35.23;42.89
36798;BME280;22748;8.426;99.512;2023-03-22T09:45:15;100131.03;;;35.30;42.36
36798;BME280;22748;8.426;99.512;2023-03-22T09:47:51;100132.38;;;35.33;42.49
36798;BME280;22748;8.426;99.512;2023-03-22T09:50:27;100127.78;;;35.33;42.16
36798;BME280;22748;8.426;99.512;2023-03-22T09:52:59;100129.69;;;35.38;41.76
36798;BME280;22748;8.426;99.512;2023-03-22T09:55:36;100119.63;;;35.33;41.73
36798;BME280;22748;8.426;99.512;2023-03-22T09:58:16;100122.91;;;35.35;41.67
36798;BME280;22748;8.426;99.512;2023-03-22T10:00:56;100125.06;;;35.38;41.75
36798;BME280;22748;8.426;99.512;2023-03-22T10:03:48;100121.00;;;35.36;41.89
36798;BME280;22748;8.426;99.512;2023-03-22T10:06:26;100131.59;;;35.42;41.92
36798;BME280;22748;8.426;99.512;2023-03-22T10:09:03;100126.72;;;35.44;41.78
36798;BME280;22748;8.426;99.512;2023-03-22T10:11:42;100127.47;;;35.30;42.45
36798;BME280;22748;8.426;99.512;2023-03-22T10:14:32;100131.59;;;35.32;42.52
36798;BME280;22748;8.426;99.512;2023-03-22T10:17:09;100128.31;;;35.30;42.35
36798;BME280;22748;8.426;99.512;2023-03-22T10:19:51;100133.19;;;35.28;42.67
36798;BME280;22748;8.426;99.512;2023-03-22T10:22:25;100138.63;;;35.28;42.77
36798;BME280;22748;8.426;99.512;2023-03-22T10:25:00;100136.41;;;35.25;42.78
36798;BME280;22748;8.426;99.512;2023-03-22T10:27:36;100133.19;;;35.33;42.75
36798;BME280;22748;8.426;99.512;2023-03-22T10:30:15;100136.75;;;35.39;43.01
36798;BME280;22748;8.426;99.512;2023-03-22T10:32:53;100137.03;;;35.42;42.75
36798;BME280;22748;8.426;99.512;2023-03-22T10:35:27;100148.19;;;35.46;42.72
36798;BME280;22748;8.426;99.512;2023-03-22T10:38:01;100145.22;;;35.48;42.70
36798;BME280;22748;8.426;99.512;2023-03-22T10:40:34;100151.47;;;35.48;42.88
36798;BME280;22748;8.426;99.512;2023-03-22T10:43:12;100152.25;;;35.49;42.71
36798;BME280;22748;8.426;99.512;2023-03-22T10:45:46;100159.34;;;35.50;43.14
36798;BME280;22748;8.426;99.512;2023-03-22T10:48:23;100156.59;;;35.44;43.37
36798;BME280;22748;8.426;99.512;2023-03-22T10:50:56;100162.81;;;35.35;43.83
36798;BME280;22748;8.426;99.512;2023-03-22T10:53:36;100164.97;;;35.33;43.83
36798;BME280;22748;8.426;99.512;2023-03-22T10:56:13;100167.94;;;35.31;43.66
36798;BME280;22748;8.426;99.512;2023-03-22T10:58:45;100177.69;;;35.27;43.01
36798;BME280;22748;8.426;99.512;2023-03-22T11:01:17;100178.50;;;35.28;43.12
36798;BME280;22748;8.426;99.512;2023-03-22T11:03:57;100174.72;;;35.29;43.32
36798;BME280;22748;8.426;99.512;2023-03-22T11:06:31;100186.94;;;35.26;43.39
36798;BME280;22748;8.426;99.512;2023-03-22T11:09:11;100182.00;;;35.23;43.57
36798;BME280;22748;8.426;99.512;2023-03-22T11:11:48;100183.09;;;35.22;43.68
36798;BME280;22748;8.426;99.512;2023-03-22T11:14:25;100187.75;;;35.27;43.94
36798;BME280;22748;8.426;99.512;2023-03-22T11:17:00;100191.81;;;35.29;43.94
36798;BME280;22748;8.426;99.512;2023-03-22T11:19:39;100205.94;;;35.31;44.07
36798;BME280;22748;8.426;99.512;2023-03-22T11:22:24;100213.03;;;35.32;44.26
36798;BME280;22748;8.426;99.512;2023-03-22T11:24:56;100205.41;;;35.34;44.28
36798;BME280;22748;8.426;99.512;2023-03-22T11:27:28;100210.84;;;35.34;44.53
36798;BME280;22748;8.426;99.512;2023-03-22T11:30:16;100212.72;;;35.29;44.63
36798;BME280;22748;8.426;99.512;2023-03-22T11:32:48;100223.84;;;35.27;44.78
36798;BME280;22748;8.426;99.512;2023-03-22T11:35:30;100219.44;;;35.21;45.04
36798;BME280;22748;8.426;99.512;2023-03-22T11:38:04;100222.69;;;35.13;45.09
36798;BME280;22748;8.426;99.512;2023-03-22T11:40:48;100215.56;;;35.12;45.42
36798;BME280;22748;8.426;99.512;2023-03-22T11:43:23;100212.38;;;35.15;45.51
36798;BME280;22748;8.426;99.512;2023-03-22T11:45:57;100220.00;;;35.18;45.57
36798;BME280;22748;8.426;99.512;2023-03-22T11:48:31;100218.28;;;35.12;45.93
36798;BME280;22748;8.426;99.512;2023-03-22T11:51:09;100217.72;;;35.05;46.17
36798;BME280;22748;8.426;99.512;2023-03-22T11:53:44;100223.41;;;35.08;46.27
36798;BME280;22748;8.426;99.512;2023-03-22T11:56:18;100220.44;;;35.10;46.45
36798;BME280;22748;8.426;99.512;2023-03-22T11:58:56;100227.53;;;35.11;46.89
36798;BME280;22748;8.426;99.512;2023-03-22T12:01:35;100237.25;;;35.07;47.13
36798;BME280;22748;8.426;99.512;2023-03-22T12:04:12;100231.84;;;35.07;47.00
36798;BME280;22748;8.426;99.512;2023-03-22T12:06:43;100232.94;;;35.11;47.25
36798;BME280;22748;8.426;99.512;2023-03-22T12:09:24;100240.00;;;35.12;47.25
36798;BME280;22748;8.426;99.512;2023-03-22T12:12:00;100247.09;;;35.13;47.44
36798;BME280;22748;8.426;99.512;2023-03-22T12:14:36;100253.34;;;35.13;47.67
36798;BME280;22748;8.426;99.512;2023-03-22T12:17:14;100259.59;;;35.14;47.66
36798;BME280;22748;8.426;99.512;2023-03-22T12:19:56;100261.50;;;35.13;47.83
36798;BME280;22748;8.426;99.512;2023-03-22T12:22:34;100271.53;;;35.13;48.01
36798;BME280;22748;8.426;99.512;2023-03-22T12:25:13;100282.06;;;35.09;48.43
36798;BME280;22748;8.426;99.512;2023-03-22T12:27:47;100294.53;;;35.10;48.57
36798;BME280;22748;8.426;99.512;2023-03-22T12:30:23;100298.09;;;35.11;48.73
36798;BME280;22748;8.426;99.512;2023-03-22T12:32:58;100313.28;;;35.12;48.76
36798;BME280;22748;8.426;99.512;2023-03-22T12:35:33;100314.38;;;35.11;48.74
36798;BME280;22748;8.426;99.512;2023-03-22T12:38:15;100325.72;;;35.08;48.67
36798;BME280;22748;8.426;99.512;2023-03-22T12:40:51;100326.00;;;35.06;48.75
36798;BME280;22748;8.426;99.512;2023-03-22T12:43:37;100337.13;;;35.05;48.61
36798;BME280;22748;8.426;99.512;2023-03-22T12:46:15;100356.09;;;35.05;48.81
36798;BME280;22748;8.426;99.512;2023-03-22T12:48:50;100358.81;;;35.05;48.87
36798;BME280;22748;8.426;99.512;2023-03-22T12:51:24;100367.22;;;35.03;48.89
36798;BME280;22748;8.426;99.512;2023-03-22T12:53:56;100374.28;;;35.04;48.78
36798;BME280;22748;8.426;99.512;2023-03-22T12:56:34;100372.88;;;35.01;48.82
36798;BME280;22748;8.426;99.512;2023-03-22T12:59:11;100376.69;;;35.00;48.92
36798;BME280;22748;8.426;99.512;2023-03-22T13:01:46;100379.41;;;35.00;49.02
36798;BME280;22748;8.426;99.512;2023-03-22T13:04:49;100386.97;;;34.98;49.02
36798;BME280;22748;8.426;99.512;2023-03-22T13:07:49;100392.41;;;34.98;49.05
36798;BME280;22748;8.426;99.512;2023-03-22T13:13:45;100409.72;;;34.92;49.04
36798;BME280;22748;8.426;99.512;2023-03-22T13:16:19;100416.16;;;34.86;48.97
36798;BME280;22748;8.426;99.512;2023-03-22T13:19:25;100424.25;;;34.81;49.20
36798;BME280;22748;8.426;99.512;2023-03-22T13:22:16;100427.47;;;34.78;49.12
36798;BME280;22748;8.426;99.512;2023-03-22T13:25:06;100431.81;;;34.79;49.23
36798;BME280;22748;8.426;99.512;2023-03-22T13:27:48;100437.56;;;34.82;49.28
36798;BME280;22748;8.426;99.512;2023-03-22T13:30:31;100439.44;;;34.82;49.28
36798;BME280;22748;8.426;99.512;2023-03-22T13:33:12;100439.44;;;34.82;49.40
36798;BME280;22748;8.426;99.512;2023-03-22T13:35:50;100448.66;;;34.81;49.27
36798;BME280;22748;8.426;99.512;2023-03-22T13:38:24;100444.06;;;34.81;49.61